createdAt,value
2022-12-08T00:02:03.067Z,5.70
2022-12-08T00:08:24.241Z,5.60
2022-12-08T00:14:29.808Z,5.50
2022-12-08T00:20:31.957Z,5.60
2022-12-08T00:26:34.048Z,5.60
2022-12-08T00:32:37.877Z,5.60
2022-12-08T00:38:41.302Z,5.60
2022-12-08T00:44:45.416Z,5.60
2022-12-08T00:50:47.858Z,5.50
2022-12-08T00:56:50.601Z,5.40
2022-12-08T01:02:53.829Z,5.50
2022-12-08T01:09:13.026Z,5.50
2022-12-08T01:15:32.953Z,5.40
2022-12-08T01:21:35.055Z,5.50
2022-12-08T01:27:37.231Z,5.60
2022-12-08T01:33:40.408Z,5.60
2022-12-08T01:39:42.838Z,5.50
2022-12-08T01:45:45.588Z,5.60
2022-12-08T01:51:51.128Z,5.60
2022-12-08T01:57:59.225Z,5.60
2022-12-08T02:04:03.265Z,5.70
2022-12-08T02:10:06.402Z,5.70
2022-12-08T02:16:33.357Z,5.60
2022-12-08T02:22:38.751Z,5.70
2022-12-08T02:28:58.186Z,5.70
2022-12-08T02:35:06.406Z,5.80
2022-12-08T02:41:17.851Z,5.90
2022-12-08T02:47:22.512Z,5.90
2022-12-08T02:53:24.931Z,5.80
2022-12-08T02:59:58.734Z,5.90
2022-12-08T03:06:01.109Z,6.00
2022-12-08T03:12:29.299Z,5.90
2022-12-08T03:18:36.707Z,5.90
2022-12-08T03:24:41.408Z,5.90
2022-12-08T03:30:46.408Z,5.90
2022-12-08T03:36:48.748Z,6.00
2022-12-08T03:42:51.071Z,6.00
2022-12-08T03:48:53.423Z,6.00
2022-12-08T03:54:55.745Z,6.00
2022-12-08T04:00:57.967Z,6.00
2022-12-08T04:07:00.628Z,6.00
2022-12-08T04:13:02.747Z,6.00
2022-12-08T04:19:05.484Z,6.10
2022-12-08T04:25:07.796Z,6.10
2022-12-08T04:31:11.006Z,6.10
2022-12-08T04:37:13.375Z,6.10
2022-12-08T04:43:15.973Z,6.10
2022-12-08T04:49:18.329Z,6.00
2022-12-08T04:55:20.762Z,6.00
2022-12-08T05:01:22.990Z,6.00
2022-12-08T05:07:25.295Z,6.00
2022-12-08T05:13:27.576Z,5.90
2022-12-08T05:19:29.933Z,5.90
2022-12-08T05:25:32.174Z,5.80
2022-12-08T05:31:34.415Z,5.80
2022-12-08T05:37:37.049Z,5.90
2022-12-08T05:43:39.310Z,5.90
2022-12-08T05:49:41.659Z,5.90
2022-12-08T05:55:43.957Z,5.90
2022-12-08T06:01:46.133Z,6.00
2022-12-08T06:07:48.461Z,6.10
2022-12-08T06:13:51.636Z,6.10
2022-12-08T06:19:53.821Z,6.10
2022-12-08T06:25:55.934Z,6.10
2022-12-08T06:31:58.326Z,6.20
2022-12-08T06:38:00.404Z,6.30
2022-12-08T06:44:02.808Z,6.30
2022-12-08T06:50:06.513Z,6.20
2022-12-08T06:56:12.230Z,6.20
2022-12-08T07:02:14.695Z,6.30
2022-12-08T07:08:17.019Z,6.30
2022-12-08T07:14:39.214Z,6.30
2022-12-08T07:20:41.670Z,6.30
2022-12-08T07:26:43.838Z,6.20
2022-12-08T07:32:46.596Z,6.30
2022-12-08T07:38:49.902Z,6.20
2022-12-08T07:44:52.191Z,6.40
2022-12-08T07:51:01.614Z,6.50
2022-12-08T07:57:04.199Z,6.40
2022-12-08T08:03:06.606Z,6.40
2022-12-08T08:09:10.527Z,6.50
2022-12-08T08:15:12.941Z,6.60
2022-12-08T08:21:43.637Z,6.70
2022-12-08T08:27:38.120Z,6.80
2022-12-08T08:33:41.729Z,6.70
2022-12-08T08:39:44.584Z,7.00
2022-12-08T08:45:47.762Z,7.00
2022-12-08T08:51:49.932Z,7.10
2022-12-08T08:57:52.061Z,7.10
2022-12-08T09:03:55.307Z,7.20
2022-12-08T09:10:01.565Z,7.40
2022-12-08T09:16:06.702Z,7.60
2022-12-08T09:22:08.845Z,7.50
2022-12-08T09:28:11.108Z,7.60
2022-12-08T09:34:13.490Z,7.90
2022-12-08T09:40:20.340Z,7.90
2022-12-08T09:46:22.736Z,8.10
2022-12-08T09:52:35.729Z,8.40
2022-12-08T09:58:53.860Z,8.60
2022-12-08T10:04:57.913Z,9.00
2022-12-08T10:11:10.293Z,9.00
2022-12-08T10:17:20.633Z,9.10
2022-12-08T10:23:32.157Z,8.90
2022-12-08T10:29:34.229Z,8.60
2022-12-08T10:35:48.678Z,8.60
2022-12-08T10:41:51.998Z,8.60
2022-12-08T10:48:03.650Z,8.50
2022-12-08T10:54:06.913Z,8.40
2022-12-08T11:00:15.081Z,8.30
2022-12-08T11:06:21.766Z,8.30
2022-12-08T11:12:27.007Z,8.20
2022-12-08T11:18:31.449Z,8.40
2022-12-08T11:24:37.687Z,8.50
2022-12-08T11:30:47.752Z,8.50
2022-12-08T11:36:51.005Z,8.70
2022-12-08T11:42:56.392Z,8.80
2022-12-08T11:49:06.279Z,8.60
2022-12-08T11:55:26.702Z,8.60
2022-12-08T12:01:28.918Z,8.50
2022-12-08T12:07:49.665Z,8.60
2022-12-08T12:14:47.578Z,8.70
2022-12-08T12:21:07.983Z,8.70
2022-12-08T12:27:16.468Z,8.50
2022-12-08T12:33:20.142Z,8.50
2022-12-08T12:39:26.878Z,8.50
2022-12-08T12:45:34.694Z,8.30
2022-12-08T12:51:39.792Z,8.20
2022-12-08T12:57:59.161Z,8.10
2022-12-08T13:04:08.504Z,8.10
2022-12-08T13:10:31.652Z,8.00
2022-12-08T13:16:37.810Z,8.10
2022-12-08T13:23:12.599Z,7.90
2022-12-08T13:29:19.720Z,7.80
2022-12-08T13:35:24.236Z,7.70
2022-12-08T13:41:38.597Z,7.70
2022-12-08T13:48:26.706Z,7.70
2022-12-08T14:01:19.226Z,7.50
2022-12-08T14:07:22.013Z,7.50
2022-12-08T14:13:25.079Z,7.50
2022-12-08T14:19:31.931Z,7.30
2022-12-08T14:25:36.049Z,7.30
2022-12-08T14:31:58.318Z,7.30
2022-12-08T14:38:02.831Z,7.30
2022-12-08T14:44:44.164Z,7.30
2022-12-08T14:50:57.882Z,7.20
2022-12-08T14:57:02.243Z,7.10
2022-12-08T15:03:08.091Z,7.10
2022-12-08T15:09:30.698Z,7.10
2022-12-08T15:15:49.645Z,7.10
2022-12-08T15:21:51.921Z,7.10
2022-12-08T15:27:54.140Z,7.10
2022-12-08T15:34:16.120Z,7.10
2022-12-08T15:40:21.401Z,7.00
2022-12-08T15:46:23.963Z,6.90
2022-12-08T15:52:28.897Z,6.80
2022-12-08T15:58:53.127Z,6.70
2022-12-08T16:05:40.195Z,6.70
2022-12-08T16:12:04.394Z,6.70
2022-12-08T16:17:57.268Z,6.60
2022-12-08T16:24:03.314Z,6.60
2022-12-08T16:30:14.427Z,6.70
2022-12-08T16:36:16.618Z,6.60
2022-12-08T16:42:40.219Z,6.50
2022-12-08T16:48:45.077Z,6.40
2022-12-08T16:54:47.288Z,6.40
2022-12-08T17:00:49.421Z,6.40
2022-12-08T17:06:53.242Z,6.40
2022-12-08T17:12:56.465Z,6.30
2022-12-08T17:18:58.765Z,6.20
2022-12-08T17:25:02.176Z,6.20
2022-12-08T17:31:13.206Z,6.20
2022-12-08T17:37:15.616Z,6.10
2022-12-08T17:43:17.934Z,6.10
2022-12-08T17:49:23.764Z,6.20
2022-12-08T17:55:26.051Z,6.20
2022-12-08T18:01:28.138Z,6.10
2022-12-08T18:07:30.575Z,6.10
2022-12-08T18:13:32.656Z,6.00
2022-12-08T18:19:34.943Z,6.00
2022-12-08T18:25:36.987Z,6.00
2022-12-08T18:31:39.213Z,6.00
2022-12-08T18:37:43.156Z,6.00
2022-12-08T18:43:45.699Z,6.00
2022-12-08T18:49:48.151Z,6.00
2022-12-08T18:55:51.435Z,6.00
2022-12-08T19:01:54.112Z,6.00
2022-12-08T19:07:57.025Z,6.00
2022-12-08T19:13:59.314Z,5.90
2022-12-08T19:20:01.807Z,6.00
2022-12-08T19:26:04.681Z,6.10
2022-12-08T19:32:07.071Z,6.00
2022-12-08T19:38:09.413Z,6.10
2022-12-08T19:44:39.058Z,6.10
2022-12-08T19:50:41.708Z,6.20
2022-12-08T19:56:43.888Z,6.20
2022-12-08T20:02:52.178Z,6.10
2022-12-08T20:08:54.756Z,6.20
2022-12-08T20:14:57.359Z,6.10
2022-12-08T20:20:59.612Z,6.00
2022-12-08T20:27:01.987Z,6.10
2022-12-08T20:33:04.064Z,6.20
2022-12-08T20:39:10.682Z,6.20
2022-12-08T20:45:13.077Z,6.20
2022-12-08T20:51:17.460Z,6.20
2022-12-08T20:57:19.693Z,6.20
2022-12-08T21:03:31.556Z,6.30
2022-12-08T21:09:34.042Z,6.20
2022-12-08T21:15:36.497Z,6.30
2022-12-08T21:21:39.126Z,6.30
2022-12-08T21:27:41.245Z,6.40
2022-12-08T21:33:51.959Z,6.40
2022-12-08T21:39:54.154Z,6.50
2022-12-08T21:45:56.714Z,6.40
2022-12-08T21:51:59.151Z,6.50
2022-12-08T21:58:02.576Z,6.50
2022-12-08T22:04:05.039Z,6.50
2022-12-08T22:10:08.248Z,6.60
2022-12-08T22:16:12.788Z,6.40
2022-12-08T22:22:15.174Z,6.30
2022-12-08T22:28:17.403Z,6.20
2022-12-08T22:34:19.717Z,6.20
2022-12-08T22:40:22.106Z,6.20
2022-12-08T22:46:27.440Z,6.30
2022-12-08T22:52:29.865Z,6.20
2022-12-08T22:58:32.025Z,6.10
2022-12-08T23:04:35.674Z,6.10
2022-12-08T23:10:40.453Z,6.20
2022-12-08T23:16:42.643Z,6.30
2022-12-08T23:22:44.954Z,6.30
2022-12-08T23:28:47.450Z,6.30
2022-12-08T23:34:49.880Z,6.30
2022-12-08T23:40:52.687Z,6.40
2022-12-08T23:46:55.258Z,6.40
2022-12-08T23:53:05.777Z,6.50
2022-12-08T23:59:08.212Z,6.40
